Time;durP1;ratioP1;P1;durP2;ratioP2;P2;SDS_P1;SDS_P2;PMS_P1;PMS_P2;Temp;Humidity;BMP_temperature;BMP_pressure;BME280_temperature;BME280_humidity;BME280_pressure;Samples;Min_cycle;Max_cycle;Signal;HPM_P1;HPM_P2
2022/06/21 00:00:27;;;;;;;10.95;4.80;;;;;;;23.76;100.00;99584.97;4440458;32;20160;-74
2022/06/21 00:03:02;;;;;;;8.05;4.43;;;;;;;23.72;100.00;99600.50;4454517;32;20492;-74
2022/06/21 00:05:34;;;;;;;10.07;4.47;;;;;;;23.68;100.00;99592.81;4454595;32;20116;-74
2022/06/21 00:08:07;;;;;;;9.88;4.75;;;;;;;23.85;100.00;99587.78;4454771;32;20088;-74
2022/06/21 00:10:34;;;;;;;10.40;4.62;;;;;;;23.87;100.00;99578.72;4454774;32;20115;-74
2022/06/21 00:13:17;;;;;;;13.48;4.47;;;;;;;23.84;100.00;99575.28;4454403;32;20427;-74
2022/06/21 00:15:46;;;;;;;6.43;4.15;;;;;;;23.74;100.00;99571.63;4454570;32;20553;-74
2022/06/21 00:18:16;;;;;;;5.95;4.30;;;;;;;23.64;100.00;99586.78;4454459;32;20092;-74
2022/06/21 00:20:44;;;;;;;8.02;4.68;;;;;;;23.68;100.00;99584.72;4454640;32;20096;-74
2022/06/21 00:23:22;;;;;;;6.78;4.47;;;;;;;23.65;100.00;99601.06;4454354;32;20520;-74
2022/06/21 00:25:50;;;;;;;5.37;4.15;;;;;;;23.63;100.00;99609.25;4454492;32;20148;-74
2022/06/21 00:28:19;;;;;;;9.52;4.32;;;;;;;23.58;100.00;99604.22;4454340;32;20073;-74
2022/06/21 00:30:48;;;;;;;7.68;4.00;;;;;;;23.65;100.00;99623.44;4454301;32;20088;-74
2022/06/21 00:33:18;;;;;;;5.90;3.90;;;;;;;23.63;100.00;99628.06;4454340;32;20089;-74
2022/06/21 00:35:50;;;;;;;6.07;4.43;;;;;;;23.63;100.00;99631.62;4454251;32;20113;-73
2022/06/21 00:38:32;;;;;;;12.90;5.10;;;;;;;23.42;100.00;99630.59;4454153;32;20069;-74
2022/06/21 00:41:04;;;;;;;7.82;4.60;;;;;;;23.37;100.00;99625.56;4454276;32;20500;-73
2022/06/21 00:43:36;;;;;;;6.65;4.15;;;;;;;23.22;100.00;99625.91;4454314;32;20089;-74
2022/06/21 00:46:17;;;;;;;6.37;4.03;;;;;;;23.28;100.00;99625.41;4454218;32;20127;-74
2022/06/21 00:48:47;;;;;;;6.80;4.45;;;;;;;23.21;100.00;99614.28;4454234;32;20076;-74
2022/06/21 00:51:22;;;;;;;8.07;3.75;;;;;;;23.28;100.00;99610.16;4453913;32;20096;-73
2022/06/21 00:53:55;;;;;;;6.03;3.33;;;;;;;23.26;100.00;99608.56;4454151;32;20100;-74
2022/06/21 00:56:25;;;;;;;6.60;3.37;;;;;;;23.27;100.00;99618.34;4454229;32;20119;-74
2022/06/21 00:58:52;;;;;;;8.95;3.35;;;;;;;23.26;100.00;99605.88;4454016;32;20140;-74
2022/06/21 01:01:32;;;;;;;5.93;3.08;;;;;;;23.31;100.00;99604.53;4454078;32;20418;-74
2022/06/21 01:04:10;;;;;;;7.10;3.03;;;;;;;23.40;97.72;99599.44;4453909;32;20436;-74
2022/06/21 01:06:44;;;;;;;8.82;2.62;;;;;;;23.45;95.48;99602.63;4453943;32;20151;-74
2022/06/21 01:09:32;;;;;;;4.75;2.80;;;;;;;23.41;94.54;99606.53;4453740;32;20072;-74
2022/06/21 01:12:12;;;;;;;3.75;2.90;;;;;;;23.44;93.88;99590.16;4453981;32;20072;-74
2022/06/21 01:14:50;;;;;;;4.62;2.95;;;;;;;23.44;93.40;99606.28;4453725;32;20139;-74
2022/06/21 01:17:17;;;;;;;7.47;2.65;;;;;;;23.37;94.24;99624.72;4453736;32;20118;-74
2022/06/21 01:19:49;;;;;;;6.75;3.58;;;;;;;23.35;95.56;99632.88;4453792;32;20111;-74
2022/06/21 01:22:58;;;;;;;5.15;2.55;;;;;;;23.27;97.28;99640.69;4453711;32;20516;-74
2022/06/21 01:25:28;;;;;;;9.23;3.30;;;;;;;23.19;97.82;99621.63;4453647;32;20238;-74
2022/06/21 01:27:56;;;;;;;3.40;2.40;;;;;;;23.07;98.62;99623.38;4453752;32;20096;-74
2022/06/21 01:30:26;;;;;;;4.50;2.47;;;;;;;22.98;98.94;99628.63;4453558;32;20081;-74
2022/06/21 01:32:57;;;;;;;13.35;3.03;;;;;;;22.45;100.00;99620.00;4453634;32;20479;-74
2022/06/21 01:35:24;;;;;;;6.55;3.30;;;;;;;22.59;100.00;99617.16;4453822;32;20421;-74
2022/06/21 01:37:52;;;;;;;3.85;2.67;;;;;;;22.51;100.00;99614.16;4453396;32;20109;-74
2022/06/21 01:40:25;;;;;;;4.75;2.80;;;;;;;22.48;99.57;99615.28;4453393;32;20092;-73
2022/06/21 01:43:01;;;;;;;4.75;2.70;;;;;;;22.33;98.04;99625.31;4453764;32;20072;-74
2022/06/21 01:45:35;;;;;;;3.35;2.78;;;;;;;22.31;99.74;99604.91;4453306;32;20580;-73
2022/06/21 01:48:18;;;;;;;4.35;2.92;;;;;;;22.04;100.00;99613.94;4453332;32;20085;-73
2022/06/21 01:50:50;;;;;;;7.12;2.95;;;;;;;22.10;100.00;99620.69;4453275;32;20073;-74
2022/06/21 01:53:21;;;;;;;4.95;2.83;;;;;;;22.22;99.56;99609.09;4453180;32;20407;-74
2022/06/21 01:55:56;;;;;;;3.47;2.80;;;;;;;22.11;100.00;99617.91;4453118;32;20081;-74
2022/06/21 01:58:26;;;;;;;9.77;3.12;;;;;;;22.25;98.88;99627.66;4453005;32;20085;-73
2022/06/21 02:01:02;;;;;;;4.03;3.33;;;;;;;22.22;98.06;99625.22;4453218;32;20180;-74
2022/06/21 02:03:33;;;;;;;5.47;3.60;;;;;;;21.89;100.00;99625.78;4453089;32;20080;-73
2022/06/21 02:06:09;;;;;;;4.70;3.42;;;;;;;21.53;100.00;99626.53;4439062;32;20138;-74
2022/06/21 02:08:47;;;;;;;8.30;4.00;;;;;;;21.53;100.00;99622.03;4453118;32;20126;-73
2022/06/21 02:11:22;;;;;;;10.05;4.68;;;;;;;21.39;100.00;99633.69;4452984;32;20419;-74
2022/06/21 02:16:45;;;;;;;5.35;3.95;;;;;;;21.36;100.00;99651.81;4452942;32;20097;-74
2022/06/21 02:19:35;;;;;;;7.35;4.45;;;;;;;21.40;100.00;99656.00;4452707;32;20105;-74
2022/06/21 02:22:02;;;;;;;6.12;3.85;;;;;;;21.72;100.00;99659.97;4454202;32;20092;-74
2022/06/21 02:24:30;;;;;;;8.57;4.32;;;;;;;21.67;100.00;99663.97;4455009;32;20100;-74
2022/06/21 02:27:01;;;;;;;6.25;4.45;;;;;;;21.54;100.00;99671.13;4455039;32;20092;-74
2022/06/21 02:29:29;;;;;;;6.78;4.62;;;;;;;21.48;100.00;99662.56;4455138;32;21087;-74
2022/06/21 02:31:59;;;;;;;6.95;4.87;;;;;;;21.46;100.00;99677.88;4455234;32;20515;-74
2022/06/21 02:34:38;;;;;;;8.05;4.93;;;;;;;21.44;100.00;99665.53;4455080;32;20118;-74
2022/06/21 02:37:07;;;;;;;6.47;4.53;;;;;;;21.33;100.00;99676.94;4455145;32;20104;-74
2022/06/21 02:39:36;;;;;;;5.62;3.92;;;;;;;21.37;100.00;99654.38;4454922;32;20501;-74
2022/06/21 02:42:16;;;;;;;7.65;3.90;;;;;;;21.29;100.00;99666.56;4454899;32;20509;-74
2022/06/21 02:44:49;;;;;;;4.22;3.85;;;;;;;21.35;100.00;99656.31;4454953;32;20137;-74
2022/06/21 02:47:23;;;;;;;5.57;3.83;;;;;;;21.29;100.00;99661.19;4454911;32;20116;-74
2022/06/21 02:50:06;;;;;;;4.68;3.30;;;;;;;21.32;98.88;99661.00;4454854;32;20583;-74
2022/06/21 02:52:38;;;;;;;3.15;2.85;;;;;;;20.86;98.35;99669.41;4454768;32;20119;-73
2022/06/21 02:55:33;;;;;;;3.80;3.00;;;;;;;20.70;98.14;99664.19;4454967;32;20510;-74
2022/06/21 02:58:27;;;;;;;3.50;3.20;;;;;;;20.67;97.45;99683.13;4454795;32;20085;-74
2022/06/21 03:00:56;;;;;;;8.52;3.30;;;;;;;20.65;97.06;99669.00;4441857;32;20113;-74
2022/06/21 03:03:27;;;;;;;4.00;3.17;;;;;;;20.57;97.25;99685.56;4454779;32;20097;-74
2022/06/21 03:05:59;;;;;;;12.13;3.53;;;;;;;20.56;97.56;99689.19;4454900;32;20448;-73
2022/06/21 03:08:29;;;;;;;6.82;3.28;;;;;;;20.51;99.22;99700.19;4454666;32;20092;-74
2022/06/21 03:10:57;;;;;;;4.62;3.55;;;;;;;20.46;100.00;99694.25;4454827;32;20123;-73
2022/06/21 03:13:28;;;;;;;6.60;3.78;;;;;;;20.40;100.00;99704.47;4454953;32;20738;-73
2022/06/21 03:15:59;;;;;;;3.83;3.50;;;;;;;20.35;100.00;99699.41;4454818;32;20084;-73
2022/06/21 03:18:34;;;;;;;10.85;3.97;;;;;;;20.22;100.00;99706.50;4454626;32;20115;-74
2022/06/21 03:21:04;;;;;;;7.05;3.60;;;;;;;20.08;100.00;99730.56;4454997;32;20548;-73
2022/06/21 03:23:33;;;;;;;7.75;4.00;;;;;;;20.04;100.00;99722.72;4455018;32;20417;-74
2022/06/21 03:26:03;;;;;;;4.57;4.07;;;;;;;20.02;100.00;99726.44;4454664;32;20100;-74
2022/06/21 03:28:36;;;;;;;5.03;4.12;;;;;;;19.98;100.00;99731.12;4454603;32;20128;-74
2022/06/21 03:31:35;;;;;;;5.80;3.92;;;;;;;19.98;100.00;99736.47;4454622;32;20089;-73
2022/06/21 03:34:13;;;;;;;7.57;3.97;;;;;;;19.77;100.00;99733.28;4459210;31;20080;-73
2022/06/21 03:36:41;;;;;;;5.15;3.50;;;;;;;19.65;100.00;99747.41;4455863;32;20080;-73
2022/06/21 03:39:17;;;;;;;5.75;3.62;;;;;;;19.61;100.00;99744.94;4454588;32;20100;-73
2022/06/21 03:41:47;;;;;;;4.53;3.67;;;;;;;19.62;100.00;99760.91;4454613;32;20148;-74
2022/06/21 03:44:24;;;;;;;3.97;3.60;;;;;;;20.01;100.00;99771.03;4454780;32;20077;-73
2022/06/21 03:47:08;;;;;;;10.95;3.37;;;;;;;19.97;100.00;99788.25;4454580;32;20131;-73
2022/06/21 03:50:03;;;;;;;3.50;3.20;;;;;;;19.88;100.00;99786.09;4454473;32;20097;-74
2022/06/21 03:52:45;;;;;;;6.07;2.70;;;;;;;19.91;100.00;99795.75;4454301;32;20088;-73
2022/06/21 03:55:22;;;;;;;5.72;2.62;;;;;;;19.89;100.00;99787.81;4454640;32;20084;-73
2022/06/21 03:58:04;;;;;;;2.62;2.12;;;;;;;19.84;97.95;99803.28;4455880;32;20168;-75
2022/06/21 04:01:01;;;;;;;4.07;2.10;;;;;;;19.90;95.01;99816.28;4457691;32;20557;-75
2022/06/21 04:03:43;;;;;;;1.92;1.83;;;;;;;19.88;92.14;99828.03;4455521;31;20630;-75
2022/06/21 04:06:15;;;;;;;3.58;1.80;;;;;;;19.94;88.25;99804.47;4485340;31;20151;-76
2022/06/21 04:08:54;;;;;;;2.35;1.67;;;;;;;19.96;86.92;99815.06;4485755;31;20141;-75
2022/06/21 04:11:35;;;;;;;1.75;1.65;;;;;;;19.77;87.98;99818.81;4485686;31;20157;-75
2022/06/21 04:14:27;;;;;;;3.50;1.95;;;;;;;19.56;88.29;99825.37;4485394;31;20104;-76
2022/06/21 04:17:22;;;;;;;1.60;1.50;;;;;;;20.03;86.49;99813.72;4451036;32;20084;-76
2022/06/21 04:20:14;;;;;;;2.65;1.62;;;;;;;20.01;85.36;99824.53;4454048;32;20104;-76
2022/06/21 04:22:57;;;;;;;1.70;1.60;;;;;;;19.84;84.30;99835.38;4454065;32;20118;-76
2022/06/21 04:25:38;;;;;;;5.18;1.60;;;;;;;19.99;81.73;99829.09;4454378;32;20100;-76
2022/06/21 04:28:14;;;;;;;2.65;1.50;;;;;;;20.00;78.93;99822.81;4454218;32;20456;-76
2022/06/21 04:31:01;;;;;;;1.98;1.62;;;;;;;19.94;78.12;99835.69;4454239;32;20125;-76
2022/06/21 04:33:37;;;;;;;1.20;1.20;;;;;;;20.00;76.68;99840.66;4454005;32;20240;-76
2022/06/21 04:36:22;;;;;;;;;;;;;;;19.86;75.28;99843.28;4454311;32;20108;-76
2022/06/21 04:38:58;;;;;;;2.83;1.15;;;;;;;19.87;74.08;99847.69;4454325;32;20007;-76
2022/06/21 04:41:42;;;;;;;2.85;1.23;;;;;;;20.00;72.15;99846.88;4454016;32;20150;-75
2022/06/21 04:44:31;;;;;;;4.53;1.10;;;;;;;20.13;70.17;99852.34;4453624;32;20455;-75
2022/06/21 04:47:14;;;;;;;6.82;1.80;;;;;;;20.04;67.83;99847.56;4453958;32;20135;-75
2022/06/21 04:49:48;;;;;;;1.30;1.20;;;;;;;19.98;68.84;99835.41;4454073;32;20118;-76
2022/06/21 04:52:36;;;;;;;2.03;1.25;;;;;;;20.29;67.86;99842.47;4458579;31;20403;-76
2022/06/21 04:55:08;;;;;;;1.37;1.27;;;;;;;20.31;67.60;99845.03;4485405;31;20204;-76
2022/06/21 04:57:36;;;;;;;1.08;1.08;;;;;;;20.42;67.75;99839.03;4485053;31;20091;-76
2022/06/21 05:00:07;;;;;;;1.10;1.00;;;;;;;20.21;67.52;99841.19;4484987;31;20083;-76
2022/06/21 05:02:38;;;;;;;1.37;1.00;;;;;;;20.38;64.37;99856.22;4485100;31;20421;-75
2022/06/21 05:05:13;;;;;;;0.98;0.98;;;;;;;20.21;63.12;99847.41;4485034;31;20384;-75
2022/06/21 05:07:49;;;;;;;2.75;0.90;;;;;;;20.19;62.86;99856.47;4485030;31;20100;-75
2022/06/21 05:10:25;;;;;;;4.62;1.17;;;;;;;20.24;62.83;99835.66;4485157;31;20555;-76
2022/06/21 05:12:54;;;;;;;3.12;1.08;;;;;;;20.47;64.27;99851.19;4484649;31;20080;-76
2022/06/21 05:15:27;;;;;;;7.05;1.12;;;;;;;20.47;63.79;99853.84;4484835;31;20160;-76
2022/06/21 05:18:23;;;;;;;4.60;1.17;;;;;;;20.45;62.64;99844.19;4484896;31;20202;-75
2022/06/21 05:20:58;;;;;;;0.80;0.80;;;;;;;20.13;59.81;99835.44;4484753;31;20076;-75
2022/06/21 05:23:26;;;;;;;2.33;1.30;;;;;;;20.55;59.04;99849.88;4453684;31;20127;-76
2022/06/21 05:25:56;;;;;;;2.40;1.08;;;;;;;20.63;58.56;99839.53;4453378;32;20625;-76
2022/06/21 05:28:30;;;;;;;;;;;;;;;20.67;58.57;99843.75;4454402;32;20130;-75
2022/06/21 05:31:09;;;;;;;4.53;1.10;;;;;;;20.66;58.66;99867.00;4453601;32;19976;-76
2022/06/21 05:33:46;;;;;;;2.62;0.93;;;;;;;20.58;59.71;99863.94;4453348;32;20093;-75
2022/06/21 05:36:20;;;;;;;3.97;0.85;;;;;;;20.49;60.56;99857.31;4453087;32;20122;-74
2022/06/21 05:38:53;;;;;;;1.02;0.77;;;;;;;20.39;60.52;99858.81;4451581;32;20121;-75
2022/06/21 05:41:34;;;;;;;0.90;0.90;;;;;;;20.41;60.82;99859.56;4453487;32;20124;-75
2022/06/21 05:44:28;;;;;;;1.30;0.90;;;;;;;20.13;61.01;99863.03;4453007;32;20538;-76
2022/06/21 05:47:07;;;;;;;3.25;1.10;;;;;;;20.15;60.02;99862.97;4452487;32;20085;-76
2022/06/21 05:49:36;;;;;;;6.10;0.88;;;;;;;20.26;59.62;99877.41;4453540;32;20157;-75
2022/06/21 05:52:10;;;;;;;0.70;0.70;;;;;;;20.50;56.40;99876.94;4453955;32;20088;-75
2022/06/21 05:54:43;;;;;;;1.45;0.80;;;;;;;20.35;55.74;99877.81;4468939;32;20096;-75
2022/06/21 05:57:17;;;;;;;1.60;0.82;;;;;;;20.23;57.32;99882.94;4470523;32;20112;-75
2022/06/21 05:59:45;;;;;;;4.22;0.80;;;;;;;20.27;56.46;99891.66;4470923;32;20093;-75
2022/06/21 06:02:22;;;;;;;0.57;0.55;;;;;;;20.08;53.81;99885.69;4470503;32;20114;-75
2022/06/21 06:05:03;;;;;;;1.98;0.60;;;;;;;20.14;53.96;99893.31;4469648;32;20093;-75
2022/06/21 06:07:36;;;;;;;2.70;0.70;;;;;;;20.39;55.26;99871.31;4470286;32;20123;-75
2022/06/21 06:10:06;;;;;;;5.68;0.77;;;;;;;20.41;55.61;99866.75;4470272;32;20100;-75
2022/06/21 06:12:39;;;;;;;5.25;0.82;;;;;;;20.45;56.32;99873.63;4467224;32;20435;-75
2022/06/21 06:15:17;;;;;;;3.95;0.70;;;;;;;20.40;55.31;99886.44;4468562;32;20131;-75
2022/06/21 06:18:06;;;;;;;6.97;0.90;;;;;;;20.16;54.90;99889.63;4463296;32;20096;-72
2022/06/21 06:20:40;;;;;;;5.18;0.82;;;;;;;20.15;56.62;99887.03;4462888;32;20501;-72
2022/06/21 06:23:21;;;;;;;5.53;0.85;;;;;;;20.28;56.46;99888.91;4466682;32;20416;-73
2022/06/21 06:25:57;;;;;;;1.67;0.88;;;;;;;20.21;54.63;99892.00;4456308;32;20277;-74
2022/06/21 06:28:54;;;;;;;11.30;1.15;;;;;;;20.22;54.79;99881.22;4455572;32;20096;-73
2022/06/21 06:31:32;;;;;;;4.60;0.70;;;;;;;20.18;54.60;99869.00;4463949;32;20169;-74
2022/06/21 06:34:05;;;;;;;5.57;0.80;;;;;;;20.21;55.05;99883.97;4455131;32;20080;-72
2022/06/21 06:36:37;;;;;;;2.33;0.60;;;;;;;20.23;55.68;99876.75;4458793;32;20766;-75
2022/06/21 06:39:17;;;;;;;3.50;1.55;;;;;;;20.24;56.70;99876.63;4455914;32;20111;-73
2022/06/21 06:41:59;;;;;;;15.35;1.37;;;;;;;20.36;57.94;99877.72;4454671;32;20088;-73
2022/06/21 06:44:36;;;;;;;3.10;0.73;;;;;;;20.34;59.56;99893.00;4459921;32;20173;-73
2022/06/21 06:47:15;;;;;;;2.05;0.70;;;;;;;20.44;58.95;99891.50;4465047;32;20759;-73
2022/06/21 06:49:58;;;;;;;3.28;0.77;;;;;;;20.60;58.24;99882.56;4459598;32;20161;-73
2022/06/21 06:52:36;;;;;;;4.90;0.75;;;;;;;20.81;57.92;99880.38;4459005;32;20100;-74
2022/06/21 06:55:14;;;;;;;1.55;0.90;;;;;;;21.29;55.38;99897.84;4470312;32;20089;-72
2022/06/21 06:57:48;;;;;;;1.35;0.73;;;;;;;21.07;54.81;99898.38;4470093;32;20693;-74
2022/06/21 07:00:30;;;;;;;6.78;0.90;;;;;;;21.03;53.90;99893.31;4469946;32;20092;-73
2022/06/21 07:03:21;;;;;;;3.05;1.00;;;;;;;21.09;53.53;99938.44;4455556;32;20214;-73
2022/06/21 07:05:54;;;;;;;4.18;1.42;;;;;;;20.70;53.64;99910.50;4470620;32;20093;-72
2022/06/21 07:08:34;;;;;;;2.05;0.90;;;;;;;20.63;54.81;99920.72;4470171;32;20072;-73
2022/06/21 07:11:09;;;;;;;3.30;1.05;;;;;;;20.64;54.91;99911.75;4470814;32;21093;-74
2022/06/21 07:13:37;;;;;;;2.87;1.10;;;;;;;20.61;55.56;99911.94;4470909;32;20143;-73
2022/06/21 07:16:12;;;;;;;1.45;0.80;;;;;;;20.75;56.61;99913.75;4470984;32;20076;-73
2022/06/21 07:18:48;;;;;;;1.95;0.88;;;;;;;20.74;53.28;99923.63;4470278;32;20098;-72
2022/06/21 07:21:16;;;;;;;5.80;0.88;;;;;;;20.75;52.74;99940.53;4470361;32;20155;-73
2022/06/21 07:23:44;;;;;;;9.40;1.05;;;;;;;20.99;52.19;99931.00;4470451;32;20091;-72
2022/06/21 07:26:30;;;;;;;3.35;0.90;;;;;;;21.34;51.87;99946.69;4467623;32;20419;-72
2022/06/21 07:29:26;;;;;;;8.77;0.80;;;;;;;21.20;51.81;99960.06;4461419;32;20161;-71
2022/06/21 07:31:58;;;;;;;2.83;0.82;;;;;;;21.12;49.69;99963.22;4463675;32;20104;-71
2022/06/21 07:34:51;;;;;;;3.87;0.93;;;;;;;21.45;50.15;99946.88;4468608;32;20088;-71
2022/06/21 07:37:25;;;;;;;6.80;0.80;;;;;;;21.51;49.04;99955.47;4454450;32;20454;-72
2022/06/21 07:39:55;;;;;;;9.05;1.10;;;;;;;21.38;47.77;99948.22;4459303;32;20152;-72
2022/06/21 07:42:30;;;;;;;2.67;0.73;;;;;;;21.39;46.26;99963.34;4455076;32;20085;-71
2022/06/21 07:45:04;;;;;;;6.65;0.82;;;;;;;21.53;45.87;99961.63;4461264;32;20153;-73
2022/06/21 07:47:58;;;;;;;4.10;1.10;;;;;;;21.57;45.57;99973.84;4460892;32;20088;-73
2022/06/21 07:50:35;;;;;;;8.82;1.10;;;;;;;21.63;45.62;99950.19;4459740;32;20092;-73
2022/06/21 07:53:21;;;;;;;3.70;0.82;;;;;;;21.77;45.18;99957.34;4458062;32;20158;-73
2022/06/21 07:55:55;;;;;;;4.32;1.00;;;;;;;21.74;45.71;99945.97;4462256;32;20164;-73
2022/06/21 07:58:34;;;;;;;2.75;0.93;;;;;;;21.92;45.84;99945.59;4461505;32;20181;-73
2022/06/21 08:07:04;;;;;;;1.08;0.88;;;;;;;21.87;43.07;99958.47;4460763;32;20089;-73
2022/06/21 08:09:54;;;;;;;2.10;0.70;;;;;;;21.69;44.08;99955.13;4462894;32;20084;-73
2022/06/21 08:12:22;;;;;;;10.52;1.20;;;;;;;21.69;45.52;99970.37;4460025;32;20200;-73
2022/06/21 08:14:50;;;;;;;5.15;0.80;;;;;;;21.86;44.64;99967.47;4469524;32;20183;-73
2022/06/21 08:17:38;;;;;;;1.52;0.75;;;;;;;21.88;44.77;99972.75;4462120;32;20560;-73
2022/06/21 08:20:12;;;;;;;7.68;1.02;;;;;;;22.03;44.92;99968.19;4461149;32;20779;-73
2022/06/21 08:23:03;;;;;;;2.25;0.75;;;;;;;21.94;44.55;99973.22;4470914;32;20085;-73
2022/06/21 08:25:36;;;;;;;3.90;0.90;;;;;;;22.51;44.67;99973.94;4466070;32;20119;-73
2022/06/21 08:28:25;;;;;;;2.08;1.05;;;;;;;22.77;43.42;99999.88;4461267;31;20126;-73
2022/06/21 08:30:56;;;;;;;2.92;0.90;;;;;;;22.83;42.54;99986.03;4464823;32;20072;-73
2022/06/21 08:33:29;;;;;;;2.00;0.85;;;;;;;23.00;43.99;99987.56;4464722;32;20097;-73
2022/06/21 08:36:03;;;;;;;4.57;1.15;;;;;;;22.98;42.82;99989.50;4470461;32;20156;-73
2022/06/21 08:39:09;;;;;;;4.90;0.90;;;;;;;22.94;42.47;99987.16;4465855;32;20750;-73
2022/06/21 08:41:57;;;;;;;3.47;1.00;;;;;;;22.86;42.45;99991.19;4469971;32;20100;-73
2022/06/21 08:44:43;;;;;;;1.75;0.80;;;;;;;22.85;42.59;99986.78;4460298;32;20093;-73
2022/06/21 08:47:25;;;;;;;1.40;0.97;;;;;;;22.80;41.60;100002.38;4451239;32;20566;-73
2022/06/21 08:50:12;;;;;;;2.60;0.98;;;;;;;22.86;42.01;99991.19;4452611;32;20093;-73
2022/06/21 08:53:02;;;;;;;7.18;1.20;;;;;;;22.99;42.16;99985.00;4456200;32;20126;-73
2022/06/21 08:55:55;;;;;;;3.35;0.90;;;;;;;23.03;42.34;99979.28;4469735;32;20171;-73
2022/06/21 08:58:44;;;;;;;8.77;1.02;;;;;;;23.46;43.50;99968.16;4454825;32;20092;-73
2022/06/21 09:01:38;;;;;;;5.65;0.88;;;;;;;23.59;40.29;99985.16;4454981;32;20161;-73
2022/06/21 09:04:28;;;;;;;6.35;0.98;;;;;;;23.66;38.62;99979.31;4454519;32;20119;-73
2022/06/21 09:07:04;;;;;;;14.40;0.93;;;;;;;23.81;39.22;99975.53;4464130;32;20076;-73
2022/06/21 09:09:56;;;;;;;4.60;1.20;;;;;;;23.40;38.82;99997.34;4454338;32;20081;-74
2022/06/21 09:12:32;;;;;;;6.65;0.82;;;;;;;23.47;40.09;99987.88;4461064;32;20100;-74
2022/06/21 09:15:12;;;;;;;4.10;0.85;;;;;;;23.37;39.58;99987.66;4457911;32;20188;-73
2022/06/21 09:17:45;;;;;;;5.07;0.98;;;;;;;23.74;38.76;99993.97;4461097;32;20096;-74
2022/06/21 09:20:38;;;;;;;5.00;0.90;;;;;;;24.05;39.07;99997.09;4461761;32;20089;-73
2022/06/21 09:23:57;;;;;;;5.97;1.02;;;;;;;24.29;38.93;99979.13;4461157;32;20163;-74
2022/06/21 09:26:52;;;;;;;7.97;1.27;;;;;;;23.93;37.31;99982.72;4462373;32;20123;-74
2022/06/21 09:30:02;;;;;;;2.85;0.80;;;;;;;23.79;38.08;100010.66;4462516;32;20100;-74
2022/06/21 09:32:48;;;;;;;3.03;0.80;;;;;;;23.76;37.80;99985.78;4404595;32;20094;-74
2022/06/21 09:35:24;;;;;;;10.98;0.93;;;;;;;23.82;37.69;99975.44;4460215;32;20126;-74
2022/06/21 09:37:58;;;;;;;;;;;;;;;24.01;37.31;99984.84;4460645;32;20089;-74
2022/06/21 09:40:37;;;;;;;6.05;0.80;;;;;;;23.83;37.42;99979.84;4462506;32;20596;-74
2022/06/21 09:43:33;;;;;;;15.27;1.12;;;;;;;24.06;37.18;99978.16;4466181;32;20116;-74
2022/06/21 09:46:20;;;;;;;2.40;0.65;;;;;;;24.00;36.93;99983.13;4459331;32;20126;-73
2022/06/21 09:48:50;;;;;;;4.00;0.88;;;;;;;24.28;36.66;99993.56;4463779;32;20183;-75
2022/06/21 09:51:35;;;;;;;5.05;1.00;;;;;;;24.27;36.61;99980.19;4464058;32;20187;-75
2022/06/21 09:54:21;;;;;;;4.28;0.80;;;;;;;23.98;37.07;99977.84;4462740;32;20457;-74
2022/06/21 09:56:54;;;;;;;10.25;0.95;;;;;;;24.39;36.98;99975.75;4459786;32;20168;-75
2022/06/21 09:59:40;;;;;;;4.82;0.75;;;;;;;24.91;37.35;99974.44;4464306;32;20427;-74
2022/06/21 10:02:12;;;;;;;5.07;0.88;;;;;;;25.08;37.07;99973.09;4464334;32;20154;-74
2022/06/21 10:05:03;;;;;;;3.70;1.02;;;;;;;25.48;36.25;99970.84;4463935;32;20101;-72
2022/06/21 10:07:58;;;;;;;4.50;0.90;;;;;;;25.18;35.23;99987.63;4464168;32;20135;-74
2022/06/21 10:10:52;;;;;;;7.90;0.73;;;;;;;25.64;35.69;99971.28;4464010;32;20157;-75
2022/06/21 10:13:31;;;;;;;3.60;0.82;;;;;;;25.14;33.69;99988.84;4471754;32;20122;-74
2022/06/21 10:16:08;;;;;;;5.72;0.93;;;;;;;25.02;35.07;99988.81;4471369;32;20200;-73
2022/06/21 10:18:56;;;;;;;3.10;0.57;;;;;;;25.02;35.71;99978.03;4459319;32;20786;-74
2022/06/21 10:21:26;;;;;;;4.28;0.73;;;;;;;25.34;34.81;100006.16;4454406;32;20141;-73
2022/06/21 10:24:16;;;;;;;7.18;0.70;;;;;;;25.48;35.74;99973.53;4455164;32;20432;-74
2022/06/21 10:27:01;;;;;;;2.15;0.80;;;;;;;25.57;35.38;99974.62;4455549;32;20093;-71
2022/06/21 10:29:47;;;;;;;3.72;0.65;;;;;;;25.90;36.00;99984.53;4455600;32;20212;-71
2022/06/21 10:32:35;;;;;;;10.70;1.10;;;;;;;26.04;35.24;99973.44;4455346;32;20449;-70
2022/06/21 10:35:21;;;;;;;4.97;0.73;;;;;;;25.96;33.82;99984.88;4440425;32;20497;-73
2022/06/21 10:37:48;;;;;;;;;;;;;;;26.35;33.67;99981.69;4454509;32;20089;-73
2022/06/21 10:40:38;;;;;;;3.25;0.90;;;;;;;26.10;32.52;99982.91;4454032;32;20268;-74
2022/06/21 10:43:25;;;;;;;3.53;0.75;;;;;;;25.84;31.77;100006.66;4453572;32;20089;-72
2022/06/21 10:46:17;;;;;;;2.78;0.70;;;;;;;25.82;33.19;99995.09;4454316;32;20797;-72
2022/06/21 10:48:53;;;;;;;9.02;0.95;;;;;;;25.95;32.64;99982.31;4454499;32;20573;-72
2022/06/21 10:51:53;;;;;;;1.20;0.85;;;;;;;26.30;32.37;99975.84;4454627;32;20792;-73
2022/06/21 10:54:58;;;;;;;1.92;0.73;;;;;;;26.75;32.65;99992.72;4455267;32;20073;-73
2022/06/21 10:57:31;;;;;;;6.90;1.30;;;;;;;26.60;31.85;100005.69;4455804;32;20100;-73
2022/06/21 11:03:33;;;;;;;1.40;0.80;;;;;;;26.92;32.22;99993.97;4454880;32;20122;-74
2022/06/21 11:06:13;;;;;;;2.53;0.73;;;;;;;27.02;31.49;99997.59;4454861;32;20486;-74
2022/06/21 11:09:03;;;;;;;3.22;1.05;;;;;;;26.83;31.64;99994.78;4455550;32;20077;-73
2022/06/21 11:11:50;;;;;;;3.55;0.62;;;;;;;26.34;32.49;100005.16;4455724;32;20104;-73
2022/06/21 11:14:22;;;;;;;3.85;1.02;;;;;;;26.89;32.54;99995.09;4455591;32;20511;-73
2022/06/21 11:17:00;;;;;;;2.67;0.90;;;;;;;26.85;32.81;100000.88;4454434;32;20146;-73
2022/06/21 11:19:49;;;;;;;4.65;0.52;;;;;;;26.95;32.46;100001.81;4454830;32;20092;-74
2022/06/21 11:22:29;;;;;;;4.72;0.82;;;;;;;27.43;32.21;100008.53;4455338;32;20093;-75
2022/06/21 11:25:04;;;;;;;6.12;0.90;;;;;;;27.47;32.64;99999.13;4455143;32;20096;-74
2022/06/21 11:28:01;;;;;;;6.62;0.85;;;;;;;28.07;32.10;99998.22;4450648;32;20107;-73
2022/06/21 11:30:41;;;;;;;6.37;0.90;;;;;;;28.25;32.00;100009.22;4462560;32;20100;-73
2022/06/21 11:33:29;;;;;;;5.00;0.82;;;;;;;29.60;30.07;99999.22;4455757;32;20112;-73
2022/06/21 11:36:10;;;;;;;8.88;0.90;;;;;;;31.73;27.43;100003.81;4470635;32;20095;-74
2022/06/21 11:38:51;;;;;;;4.30;0.90;;;;;;;32.69;27.00;99998.81;4463630;32;20097;-74
2022/06/21 11:44:55;;;;;;;2.00;0.60;;;;;;;32.36;25.62;100001.47;4455791;32;20136;-73
2022/06/21 11:47:57;;;;;;;6.90;1.00;;;;;;;31.63;25.90;100001.25;4455379;32;20169;-73
2022/06/21 11:50:27;;;;;;;1.50;0.70;;;;;;;32.10;26.13;99995.31;4455487;32;20081;-73
2022/06/21 11:53:21;;;;;;;5.00;0.82;;;;;;;33.13;25.46;100001.19;4460924;32;20096;-73
2022/06/21 11:55:59;;;;;;;3.20;0.98;;;;;;;31.71;26.61;100005.88;4459319;32;20160;-73
2022/06/21 11:58:49;;;;;;;4.40;0.98;;;;;;;32.07;26.64;100001.94;4469227;32;20507;-73
2022/06/21 12:01:33;;;;;;;3.40;1.37;;;;;;;32.94;24.92;99998.81;4469671;32;20080;-74
2022/06/21 12:04:20;;;;;;;1.23;0.75;;;;;;;33.83;23.55;100007.81;4469272;32;20122;-74
2022/06/21 12:07:03;;;;;;;3.75;1.00;;;;;;;33.75;23.58;99995.91;4469857;32;20127;-73
2022/06/21 12:09:37;;;;;;;5.97;0.90;;;;;;;33.74;23.74;99999.66;4469724;32;20505;-73
2022/06/21 12:14:39;;;;;;;5.20;0.70;;;;;;;34.40;22.72;99999.31;4380304;32;1317726;-74
2022/06/21 12:17:10;;;;;;;6.35;0.95;;;;;;;34.40;22.72;99999.31;4404073;32;20122;-73
2022/06/21 12:19:42;;;;;;;1.37;0.60;;;;;;;32.07;24.33;99990.19;4404098;32;20519;-74
2022/06/21 12:22:23;;;;;;;4.75;0.60;;;;;;;32.50;24.15;99989.06;4404221;32;20141;-74
2022/06/21 12:24:51;;;;;;;6.65;0.68;;;;;;;32.48;23.97;99985.69;4404045;32;20106;-73
2022/06/21 12:27:20;;;;;;;1.30;0.90;;;;;;;33.12;23.84;99972.19;4404103;32;20170;-73
2022/06/21 12:29:47;;;;;;;4.25;0.70;;;;;;;32.43;24.84;99977.13;4403852;32;20082;-74
2022/06/21 12:32:24;;;;;;;3.65;0.82;;;;;;;33.48;24.27;99966.31;4403884;32;20550;-73
2022/06/21 12:35:07;;;;;;;4.30;0.85;;;;;;;34.52;23.36;99967.78;4404003;32;20181;-71
2022/06/21 12:37:40;;;;;;;2.67;1.00;;;;;;;34.18;23.77;99957.25;4403928;32;20162;-73
2022/06/21 12:40:29;;;;;;;0.80;0.60;;;;;;;32.10;25.50;99963.44;4404168;32;20386;-72
2022/06/21 12:43:26;;;;;;;0.73;0.70;;;;;;;31.87;26.66;99952.34;4407332;32;20171;-74